Terminal Aerodrome Forecast
Issued by NWS Sterling, VA

Current Version | Previous Version | Text Only | Print | Product List | Glossary Off
Versions: 1 2 3 4 5 6 7 8 9 10 11 12 13 14 15 16 17 18 19 20 21 22 23 24 25

000
FTUS41 KLWX 262324
TAFDCA
TAF
KDCA 262324Z 2700/2724 21014G20KT P6SM SCT045 SCT180 OVC250
     FM270030 26012G20KT 5SM -SHRA OVC030
     FM270500 34012G20KT 5SM -RA OVC015
     FM271200 34008KT 5SM -RA OVC015
     FM271600 34009KT P6SM OVC025
     FM271800 34009KT P6SM BKN050
     FM272300 33005KT P6SM BKN050=

USA.gov is the U.S. government's official web portal to all federal, state and local government web resources and services.